Terminal Aerodrome Forecast
Issued by NWS

Home | Current Version | Previous Version | Graphics & Text | Print | Product List | Glossary On
Versions: 1 2 3 4 5 6 7 8 9 10 11 12 13
172
FTUS41 KCLE 252325
TAFFDY
TAF
KFDY 252325Z 2600/2624 13008KT P6SM SCT070
     FM261500 17015G25KT P6SM SCT050=

USA.gov is the U.S. government's official web portal to all federal, state and local government web resources and services.